createdAt,value
2018-10-12T00:00:00.317Z,944.73
2018-10-12T00:01:08.379Z,944.73
2018-10-12T00:02:16.335Z,944.76
2018-10-12T00:03:24.425Z,944.77
2018-10-12T00:04:32.471Z,944.74
2018-10-12T00:05:40.541Z,944.80
2018-10-12T00:06:48.697Z,944.79
2018-10-12T00:07:56.649Z,944.84
2018-10-12T00:09:04.732Z,944.85
2018-10-12T00:10:12.799Z,944.86
2018-10-12T00:11:20.976Z,944.87
2018-10-12T00:12:29.008Z,944.87
2018-10-12T00:13:36.970Z,944.86
2018-10-12T00:14:45.047Z,944.89
2018-10-12T00:15:53.206Z,944.92
2018-10-12T00:17:01.174Z,944.96
2018-10-12T00:18:09.328Z,944.95
2018-10-12T00:19:17.305Z,945.00
2018-10-12T00:20:25.367Z,945.01
2018-10-12T00:21:33.421Z,945.05
2018-10-12T00:22:41.576Z,945.05
2018-10-12T00:23:49.552Z,945.07
2018-10-12T00:24:57.606Z,945.08
2018-10-12T00:26:05.662Z,945.08
2018-10-12T00:27:13.743Z,945.11
2018-10-12T00:28:21.903Z,945.13
2018-10-12T00:29:29.873Z,945.13
2018-10-12T00:30:37.925Z,945.17
2018-10-12T00:31:46.076Z,945.15
2018-10-12T00:32:54.150Z,945.16
2018-10-12T00:34:02.114Z,945.20
2018-10-12T00:35:10.177Z,945.23
2018-10-12T00:36:18.274Z,945.22
2018-10-12T00:37:26.280Z,945.26
2018-10-12T00:38:34.398Z,945.23
2018-10-12T00:39:42.423Z,945.24
2018-10-12T00:40:50.489Z,945.27
2018-10-12T00:41:58.569Z,945.25
2018-10-12T00:43:06.686Z,945.24
2018-10-12T00:44:14.677Z,945.27
2018-10-12T00:45:22.766Z,945.32
2018-10-12T00:46:30.811Z,945.39
2018-10-12T00:47:38.959Z,945.38
2018-10-12T00:48:46.924Z,945.39
2018-10-12T00:49:55.090Z,945.43
2018-10-12T00:51:03.065Z,945.43
2018-10-12T00:52:11.112Z,945.42
2018-10-12T00:53:19.279Z,945.40
2018-10-12T00:54:27.242Z,945.40
2018-10-12T00:55:35.314Z,945.35
2018-10-12T00:56:43.367Z,945.38
2018-10-12T00:57:51.429Z,945.37
2018-10-12T00:58:59.592Z,945.40
2018-10-12T01:00:07.540Z,945.41
2018-10-12T01:01:15.610Z,945.36
2018-10-12T01:02:23.677Z,945.38
2018-10-12T01:03:31.752Z,945.36
2018-10-12T01:04:39.897Z,945.37
2018-10-12T01:05:48.708Z,945.37
2018-10-12T01:06:55.920Z,945.37
2018-10-12T01:08:03.976Z,945.32
2018-10-12T01:09:12.061Z,945.35
2018-10-12T01:10:20.227Z,945.36
2018-10-12T01:11:28.165Z,945.37
2018-10-12T01:12:36.223Z,945.33
2018-10-12T01:13:44.301Z,945.38
2018-10-12T01:14:52.369Z,945.37
2018-10-12T01:16:00.507Z,945.41
2018-10-12T01:17:08.495Z,945.41
2018-10-12T01:18:16.625Z,945.38
2018-10-12T01:19:24.626Z,945.41
2018-10-12T01:20:32.781Z,945.43
2018-10-12T01:21:40.732Z,945.43
2018-10-12T01:22:48.811Z,945.41
2018-10-12T01:23:56.880Z,945.36
2018-10-12T01:25:04.941Z,945.40
2018-10-12T01:26:13.088Z,945.44
2018-10-12T01:27:21.046Z,945.44
2018-10-12T01:28:29.121Z,945.44
2018-10-12T01:29:37.179Z,945.44
2018-10-12T01:30:45.251Z,945.44
2018-10-12T01:31:53.394Z,945.45
2018-10-12T01:33:01.463Z,945.46
2018-10-12T01:34:09.420Z,945.46
2018-10-12T01:35:17.491Z,945.47
2018-10-12T01:36:25.566Z,945.42
2018-10-12T01:37:33.716Z,945.46
2018-10-12T01:38:41.677Z,945.44
2018-10-12T01:39:49.734Z,945.44
2018-10-12T01:40:57.798Z,945.47
2018-10-12T01:42:06.112Z,945.47
2018-10-12T01:43:13.978Z,945.52
2018-10-12T01:44:22.003Z,945.53
2018-10-12T01:45:30.057Z,945.48
2018-10-12T01:46:38.118Z,945.49
2018-10-12T01:47:46.253Z,945.47
2018-10-12T01:48:54.237Z,945.47
2018-10-12T01:50:02.289Z,945.50
2018-10-12T01:51:10.358Z,945.44
2018-10-12T01:52:18.420Z,945.48
2018-10-12T01:53:26.570Z,945.46
2018-10-12T01:54:34.547Z,945.53
2018-10-12T01:55:42.606Z,945.51
2018-10-12T01:56:50.677Z,945.54
2018-10-12T01:57:58.990Z,945.56
2018-10-12T01:59:06.883Z,945.58
2018-10-12T02:00:14.853Z,945.55
2018-10-12T02:01:23.058Z,945.55
2018-10-12T02:02:30.979Z,945.55
2018-10-12T02:03:39.128Z,945.54
2018-10-12T02:04:47.197Z,945.55
2018-10-12T02:05:55.156Z,945.56
2018-10-12T02:07:03.231Z,945.59
2018-10-12T02:08:11.291Z,945.62
2018-10-12T02:09:19.349Z,945.62
2018-10-12T02:10:27.512Z,945.66
2018-10-12T02:11:35.471Z,945.68
2018-10-12T02:12:43.532Z,945.67
2018-10-12T02:13:51.592Z,945.70
2018-10-12T02:14:59.663Z,945.67
2018-10-12T02:16:07.826Z,945.76
2018-10-12T02:17:15.771Z,945.75
2018-10-12T02:18:23.857Z,945.75
2018-10-12T02:19:32.011Z,945.78
2018-10-12T02:20:39.984Z,945.77
2018-10-12T02:21:48.135Z,945.77
2018-10-12T02:22:56.105Z,945.78
2018-10-12T02:24:04.161Z,945.80
2018-10-12T02:25:12.215Z,945.73
2018-10-12T02:26:20.331Z,945.75
2018-10-12T02:27:28.445Z,945.77
2018-10-12T02:28:36.401Z,945.80
2018-10-12T02:29:44.467Z,945.81
2018-10-12T02:30:52.541Z,945.81
2018-10-12T02:32:00.599Z,945.81
2018-10-12T02:33:08.751Z,945.80
2018-10-12T02:34:16.697Z,945.82
2018-10-12T02:35:24.901Z,945.82
2018-10-12T02:36:32.847Z,945.81
2018-10-12T02:37:40.987Z,945.83
2018-10-12T02:38:48.972Z,945.86
2018-10-12T02:39:57.056Z,945.87
2018-10-12T02:41:05.100Z,945.89
2018-10-12T02:42:13.179Z,945.88
2018-10-12T02:43:21.284Z,945.87
2018-10-12T02:44:29.287Z,945.91
2018-10-12T02:45:37.360Z,945.94
2018-10-12T02:46:45.427Z,945.92
2018-10-12T02:47:53.483Z,945.96
2018-10-12T02:49:01.643Z,946.00
2018-10-12T02:50:09.601Z,945.98
2018-10-12T02:51:17.763Z,946.02
2018-10-12T02:52:25.725Z,946.08
2018-10-12T02:53:33.789Z,946.07
2018-10-12T02:54:41.949Z,946.10
2018-10-12T02:55:49.972Z,946.05
2018-10-12T02:56:57.984Z,946.10
2018-10-12T02:58:06.019Z,946.11
2018-10-12T02:59:14.102Z,946.11
2018-10-12T03:00:22.263Z,946.13
2018-10-12T03:01:30.230Z,946.15
2018-10-12T03:02:38.293Z,946.16
2018-10-12T03:03:46.328Z,946.18
2018-10-12T03:04:54.415Z,946.18
2018-10-12T03:06:02.575Z,946.21
2018-10-12T03:07:10.631Z,946.21
2018-10-12T03:08:18.594Z,946.23
2018-10-12T03:09:26.648Z,946.23
2018-10-12T03:10:34.727Z,946.21
2018-10-12T03:11:42.867Z,946.19
2018-10-12T03:12:50.840Z,946.21
2018-10-12T03:13:58.918Z,946.17
2018-10-12T03:15:06.967Z,946.23
2018-10-12T03:16:15.038Z,946.18
2018-10-12T03:17:23.197Z,946.22
2018-10-12T03:18:31.161Z,946.22
2018-10-12T03:19:39.227Z,946.25
2018-10-12T03:20:47.292Z,946.27
2018-10-12T03:21:55.356Z,946.23
2018-10-12T03:23:03.514Z,946.25
2018-10-12T03:24:11.477Z,946.27
2018-10-12T03:25:19.537Z,946.27
2018-10-12T03:26:27.592Z,946.27
2018-10-12T03:27:35.748Z,946.26
2018-10-12T03:28:43.740Z,946.32
2018-10-12T03:29:51.790Z,946.29
2018-10-12T03:30:59.851Z,946.30
2018-10-12T03:32:07.913Z,946.33
2018-10-12T03:33:16.057Z,946.34
2018-10-12T03:34:24.045Z,946.34
2018-10-12T03:35:32.091Z,946.35
2018-10-12T03:36:40.156Z,946.36
2018-10-12T03:37:48.316Z,946.35
2018-10-12T03:38:56.259Z,946.38
2018-10-12T03:40:04.355Z,946.36
2018-10-12T03:41:12.415Z,946.37
2018-10-12T03:42:20.495Z,946.36
2018-10-12T03:43:28.541Z,946.34
2018-10-12T03:44:36.571Z,946.34
2018-10-12T03:45:44.648Z,946.34
2018-10-12T03:46:52.713Z,946.36
2018-10-12T03:48:00.877Z,946.35
2018-10-12T03:49:08.870Z,946.37
2018-10-12T03:50:16.887Z,946.41
2018-10-12T03:51:24.959Z,946.38
2018-10-12T03:52:33.116Z,946.45
2018-10-12T03:53:41.205Z,946.47
2018-10-12T03:54:49.149Z,946.50
2018-10-12T03:55:57.216Z,946.46
2018-10-12T03:57:05.633Z,946.50
2018-10-12T03:58:13.345Z,946.51
2018-10-12T03:59:21.492Z,946.52
2018-10-12T04:00:29.602Z,946.48
2018-10-12T04:01:37.531Z,946.52
2018-10-12T04:02:45.703Z,946.56
2018-10-12T04:03:53.765Z,946.56
2018-10-12T04:05:01.731Z,946.56
2018-10-12T04:06:09.782Z,946.54
2018-10-12T04:07:17.883Z,946.53
2018-10-12T04:08:25.989Z,946.56
2018-10-12T04:09:34.062Z,946.56
2018-10-12T04:10:42.040Z,946.61
2018-10-12T04:11:50.082Z,946.57
2018-10-12T04:12:58.150Z,946.61
2018-10-12T04:14:06.188Z,946.59
2018-10-12T04:15:14.378Z,946.64
2018-10-12T04:16:22.343Z,946.64
2018-10-12T04:17:30.408Z,946.66
2018-10-12T04:18:38.464Z,946.65
2018-10-12T04:19:46.494Z,946.66
2018-10-12T04:20:56.894Z,946.66
2018-10-12T04:22:02.663Z,946.67
2018-10-12T04:23:11.015Z,946.68
2018-10-12T04:24:18.916Z,946.68
2018-10-12T04:25:26.850Z,946.73
2018-10-12T04:26:34.994Z,946.76
2018-10-12T04:27:42.961Z,946.75
2018-10-12T04:28:51.009Z,946.75
2018-10-12T04:29:59.195Z,946.73
2018-10-12T04:31:07.165Z,946.74
2018-10-12T04:32:15.308Z,946.72
2018-10-12T04:33:23.305Z,946.72
2018-10-12T04:34:31.336Z,946.73
2018-10-12T04:35:39.399Z,946.72
2018-10-12T04:36:47.471Z,946.72
2018-10-12T04:37:55.581Z,946.71
2018-10-12T04:39:03.593Z,946.73
2018-10-12T04:40:11.761Z,946.75
2018-10-12T04:41:19.936Z,946.79
2018-10-12T04:42:28.488Z,946.80
2018-10-12T04:43:35.838Z,946.73
2018-10-12T04:44:43.893Z,946.78
2018-10-12T04:45:51.969Z,946.84
2018-10-12T04:47:00.024Z,946.81
2018-10-12T04:48:08.181Z,946.83
2018-10-12T04:49:16.133Z,946.88
2018-10-12T04:50:24.207Z,946.88
2018-10-12T04:51:32.271Z,946.88
2018-10-12T04:52:40.416Z,946.94
2018-10-12T04:53:48.464Z,946.91
2018-10-12T04:54:56.549Z,946.92
2018-10-12T04:56:05.131Z,946.90
2018-10-12T04:57:12.719Z,946.92
2018-10-12T04:58:20.736Z,946.93
2018-10-12T04:59:28.717Z,946.94
2018-10-12T05:00:36.815Z,946.97
2018-10-12T05:01:44.831Z,946.98
2018-10-12T05:02:52.890Z,947.02
2018-10-12T05:04:01.039Z,947.10
2018-10-12T05:05:09.691Z,947.08
2018-10-12T05:06:17.074Z,947.09
2018-10-12T05:07:25.819Z,947.10
2018-10-12T05:08:33.208Z,947.10
2018-10-12T05:09:41.371Z,947.12
2018-10-12T05:10:50.135Z,947.16
2018-10-12T05:11:57.708Z,947.18
2018-10-12T05:13:05.452Z,947.17
2018-10-12T05:14:13.514Z,947.21
2018-10-12T05:15:21.672Z,947.21
2018-10-12T05:16:29.629Z,947.21
2018-10-12T05:17:37.699Z,947.24
2018-10-12T05:18:45.766Z,947.27
2018-10-12T05:19:53.830Z,947.30
2018-10-12T05:21:01.989Z,947.28
2018-10-12T05:22:10.045Z,947.28
2018-10-12T05:23:18.030Z,947.30
2018-10-12T05:24:26.050Z,947.35
2018-10-12T05:25:34.140Z,947.36
2018-10-12T05:26:42.301Z,947.37
2018-10-12T05:27:50.268Z,947.38
2018-10-12T05:28:58.335Z,947.43
2018-10-12T05:30:06.422Z,947.47
2018-10-12T05:31:14.477Z,947.46
2018-10-12T05:32:22.619Z,947.51
2018-10-12T05:33:30.579Z,947.53
2018-10-12T05:34:38.651Z,947.52
2018-10-12T05:35:46.707Z,947.52
2018-10-12T05:36:54.767Z,947.51
2018-10-12T05:38:02.963Z,947.53
2018-10-12T05:39:10.907Z,947.62
2018-10-12T05:40:18.959Z,947.67
2018-10-12T05:41:27.016Z,947.65
2018-10-12T05:42:35.186Z,947.61
2018-10-12T05:43:43.209Z,947.67
2018-10-12T05:44:51.208Z,947.66
2018-10-12T05:45:59.266Z,947.69
2018-10-12T05:47:07.323Z,947.68
2018-10-12T05:48:15.492Z,947.69
2018-10-12T05:49:23.461Z,947.68
2018-10-12T05:50:31.521Z,947.70
2018-10-12T05:51:39.734Z,947.70
2018-10-12T05:52:47.640Z,947.68
2018-10-12T05:53:55.802Z,947.68
2018-10-12T05:55:03.764Z,947.69
2018-10-12T05:56:11.832Z,947.73
2018-10-12T05:57:19.896Z,947.76
2018-10-12T05:58:28.058Z,947.76
2018-10-12T05:59:36.083Z,947.78
2018-10-12T06:00:44.073Z,947.83
2018-10-12T06:01:52.195Z,947.82
2018-10-12T06:03:00.201Z,947.81
2018-10-12T06:04:08.266Z,947.84
2018-10-12T06:05:16.405Z,947.83
2018-10-12T06:06:24.400Z,947.86
2018-10-12T06:07:32.454Z,947.89
2018-10-12T06:08:40.516Z,947.89
2018-10-12T06:09:48.760Z,947.91
2018-10-12T06:10:56.732Z,947.94
2018-10-12T06:12:04.703Z,947.96
2018-10-12T06:13:12.856Z,947.98
2018-10-12T06:14:20.837Z,947.99
2018-10-12T06:15:28.919Z,948.02
2018-10-12T06:16:37.036Z,948.04
2018-10-12T06:17:45.025Z,948.03
2018-10-12T06:18:53.085Z,947.96
2018-10-12T06:20:01.164Z,948.01
2018-10-12T06:21:09.209Z,948.02
2018-10-12T06:22:17.364Z,948.05
2018-10-12T06:23:25.331Z,948.06
2018-10-12T06:24:33.394Z,948.10
2018-10-12T06:25:41.472Z,948.09
2018-10-12T06:26:49.623Z,948.11
2018-10-12T06:27:57.667Z,948.14
2018-10-12T06:29:05.640Z,948.18
2018-10-12T06:30:13.708Z,948.20
2018-10-12T06:31:21.757Z,948.21
2018-10-12T06:32:29.892Z,948.25
2018-10-12T06:33:37.890Z,948.25
2018-10-12T06:34:45.948Z,948.28
2018-10-12T06:35:54.024Z,948.30
2018-10-12T06:37:02.079Z,948.33
2018-10-12T06:38:10.246Z,948.32
2018-10-12T06:39:18.212Z,948.35
2018-10-12T06:40:26.258Z,948.38
2018-10-12T06:41:34.518Z,948.38
2018-10-12T06:42:42.505Z,948.35
2018-10-12T06:43:51.230Z,948.32
2018-10-12T06:44:58.523Z,948.38
2018-10-12T06:46:06.559Z,948.38
2018-10-12T06:47:14.653Z,948.45
2018-10-12T06:48:22.820Z,948.41
2018-10-12T06:49:30.774Z,948.46
2018-10-12T06:50:38.849Z,948.39
2018-10-12T06:51:46.900Z,948.43
2018-10-12T06:52:55.097Z,948.43
2018-10-12T06:54:03.204Z,948.48
2018-10-12T06:55:11.097Z,948.49
2018-10-12T06:56:19.166Z,948.50
2018-10-12T06:57:27.216Z,948.52
2018-10-12T06:58:35.409Z,948.54
2018-10-12T06:59:43.495Z,948.55
2018-10-12T07:00:51.407Z,948.61
2018-10-12T07:01:59.470Z,948.64
2018-10-12T07:03:07.546Z,948.64
2018-10-12T07:04:15.600Z,948.67
2018-10-12T07:05:23.774Z,948.67
2018-10-12T07:06:31.730Z,948.69
2018-10-12T07:07:39.790Z,948.69
2018-10-12T07:08:47.863Z,948.75
2018-10-12T07:09:55.903Z,948.75
2018-10-12T07:11:04.074Z,948.84
2018-10-12T07:12:12.052Z,948.82
2018-10-12T07:13:20.117Z,948.95
2018-10-12T07:14:28.272Z,949.21
2018-10-12T07:15:36.227Z,949.37
2018-10-12T07:16:44.408Z,949.50
2018-10-12T07:17:52.570Z,949.55
2018-10-12T07:19:00.637Z,949.32
2018-10-12T07:20:08.694Z,949.20
2018-10-12T07:21:16.767Z,949.16
2018-10-12T07:22:24.927Z,949.19
2018-10-12T07:23:33.587Z,949.50
2018-10-12T07:24:41.341Z,949.58
2018-10-12T07:27:02.022Z,949.36
2018-10-12T07:29:27.165Z,949.38
2018-10-12T07:30:34.732Z,949.59
2018-10-12T07:31:42.661Z,949.69
2018-10-12T07:32:50.779Z,949.56
2018-10-12T07:33:58.794Z,949.59
2018-10-12T07:35:06.868Z,949.85
2018-10-12T07:36:14.935Z,950.21
2018-10-12T07:37:23.034Z,951.13
2018-10-12T07:38:31.056Z,951.28
2018-10-12T07:39:39.134Z,950.81
2018-10-12T07:40:47.190Z,949.29
2018-10-12T07:41:55.267Z,949.04
2018-10-12T07:43:03.368Z,949.03
2018-10-12T07:44:11.394Z,949.07
2018-10-12T07:45:19.553Z,949.03
2018-10-12T07:46:27.540Z,949.07
2018-10-12T07:47:35.703Z,949.04
2018-10-12T07:48:43.781Z,949.07
2018-10-12T07:49:51.733Z,949.11
2018-10-12T07:50:59.792Z,949.10
2018-10-12T07:52:07.859Z,949.14
2018-10-12T07:53:16.042Z,949.16
2018-10-12T07:54:23.983Z,949.14
2018-10-12T07:55:32.067Z,949.17
2018-10-12T07:56:40.123Z,949.13
2018-10-12T07:58:58.971Z,949.11
2018-10-12T08:00:06.979Z,949.11
2018-10-12T08:01:15.103Z,949.09
2018-10-12T08:02:24.280Z,949.08
2018-10-12T08:03:32.357Z,949.06
2018-10-12T08:04:40.497Z,949.06
2018-10-12T08:05:48.483Z,949.02
2018-10-12T08:06:56.519Z,949.02
2018-10-12T08:08:04.603Z,949.01
2018-10-12T08:09:12.666Z,949.03
2018-10-12T08:10:20.848Z,949.00
2018-10-12T08:11:28.793Z,948.99
2018-10-12T08:12:36.872Z,948.98
2018-10-12T08:13:44.993Z,949.01
2018-10-12T08:14:53.022Z,948.98
2018-10-12T08:16:01.175Z,949.05
2018-10-12T08:17:11.047Z,949.09
2018-10-12T08:18:19.219Z,949.09
2018-10-12T08:19:27.281Z,949.12
2018-10-12T08:20:35.932Z,949.12
2018-10-12T08:21:44.120Z,949.15
2018-10-12T08:22:52.091Z,949.15
2018-10-12T08:24:00.241Z,949.15
2018-10-12T08:25:08.224Z,949.14
2018-10-12T08:26:16.262Z,949.17
2018-10-12T08:27:24.450Z,949.17
2018-10-12T08:28:33.189Z,949.17
2018-10-12T08:29:41.150Z,949.22
2018-10-12T08:30:48.617Z,949.18
2018-10-12T08:33:05.418Z,949.20
2018-10-12T08:34:14.963Z,949.19
2018-10-12T08:35:23.031Z,949.19
2018-10-12T08:36:31.183Z,949.18
2018-10-12T08:37:39.273Z,949.22
2018-10-12T08:38:47.237Z,949.22
2018-10-12T08:39:55.313Z,949.26
2018-10-12T08:41:03.366Z,949.28
2018-10-12T08:42:11.449Z,949.32
2018-10-12T08:44:30.195Z,949.38
2018-10-12T08:45:38.260Z,949.33
2018-10-12T08:46:46.298Z,949.37
2018-10-12T08:47:54.498Z,949.35
2018-10-12T08:49:02.471Z,949.32
2018-10-12T08:50:10.531Z,949.30
2018-10-12T08:51:18.599Z,949.33
2018-10-12T08:52:26.638Z,949.28
2018-10-12T08:53:34.718Z,949.27
2018-10-12T08:54:42.850Z,949.26
2018-10-12T08:55:50.890Z,949.22
2018-10-12T08:56:58.931Z,949.21
2018-10-12T08:58:07.082Z,949.18
2018-10-12T08:59:15.064Z,949.21
2018-10-12T09:00:23.142Z,949.24
2018-10-12T09:01:31.200Z,949.24
2018-10-12T09:02:39.261Z,949.24
2018-10-12T09:03:47.432Z,949.26
2018-10-12T09:04:55.401Z,949.27
2018-10-12T09:06:03.471Z,949.33
2018-10-12T09:07:11.532Z,949.34
2018-10-12T09:08:19.600Z,949.31
2018-10-12T09:09:27.767Z,949.35
2018-10-12T09:10:35.824Z,949.35
2018-10-12T09:11:43.797Z,949.39
2018-10-12T09:12:51.875Z,949.36
2018-10-12T09:13:59.943Z,949.36
2018-10-12T09:15:08.107Z,949.34
2018-10-12T09:16:16.138Z,949.35
2018-10-12T09:17:24.154Z,949.35
2018-10-12T09:18:32.225Z,949.35
2018-10-12T09:19:40.277Z,949.37
2018-10-12T09:20:48.551Z,949.39
2018-10-12T09:21:56.450Z,949.44
2018-10-12T09:23:04.488Z,949.39
2018-10-12T09:24:12.555Z,949.43
2018-10-12T09:25:20.649Z,949.39
2018-10-12T09:26:28.784Z,949.38
2018-10-12T09:27:36.745Z,949.34
2018-10-12T09:28:44.824Z,949.34
2018-10-12T09:29:52.894Z,949.33
2018-10-12T09:31:00.962Z,949.35
2018-10-12T09:32:09.118Z,949.41
2018-10-12T09:33:17.082Z,949.42
2018-10-12T09:34:25.182Z,949.44
2018-10-12T09:35:33.238Z,949.42
2018-10-12T09:36:41.360Z,949.41
2018-10-12T09:37:49.464Z,949.39
2018-10-12T09:38:57.443Z,949.38
2018-10-12T09:40:05.569Z,949.40
2018-10-12T09:41:13.600Z,949.35
2018-10-12T09:42:21.752Z,949.39
2018-10-12T09:43:29.732Z,949.32
2018-10-12T09:44:37.836Z,949.35
2018-10-12T09:45:45.844Z,949.36
2018-10-12T09:46:53.910Z,949.41
2018-10-12T09:48:02.090Z,949.43
2018-10-12T09:49:10.067Z,949.42
2018-10-12T09:50:18.156Z,949.38
2018-10-12T09:51:26.182Z,949.39
2018-10-12T09:52:34.358Z,949.37
2018-10-12T09:53:42.357Z,949.41
2018-10-12T09:54:50.409Z,949.40
2018-10-12T09:55:58.527Z,949.41
2018-10-12T09:57:06.512Z,949.43
2018-10-12T09:58:14.694Z,949.43
2018-10-12T09:59:22.684Z,949.43
2018-10-12T10:00:30.735Z,949.42
2018-10-12T10:01:38.831Z,949.43
2018-10-12T10:02:46.968Z,949.39
2018-10-12T10:03:54.940Z,949.39
2018-10-12T10:05:03.019Z,949.36
2018-10-12T10:06:11.076Z,949.40
2018-10-12T10:07:19.153Z,949.38
2018-10-12T10:08:27.401Z,949.42
2018-10-12T10:09:35.277Z,949.36
2018-10-12T10:10:43.363Z,949.34
2018-10-12T10:11:51.428Z,949.32
2018-10-12T10:12:59.589Z,949.27
2018-10-12T10:14:07.661Z,949.27
2018-10-12T10:15:15.680Z,949.26
2018-10-12T10:16:23.719Z,949.25
2018-10-12T10:17:31.771Z,949.26
2018-10-12T10:18:39.843Z,949.19
2018-10-12T10:19:48.016Z,949.20
2018-10-12T10:20:55.970Z,949.24
2018-10-12T10:22:04.062Z,949.21
2018-10-12T10:23:12.118Z,949.23
2018-10-12T10:24:20.193Z,949.24
2018-10-12T10:25:28.364Z,949.23
2018-10-12T10:26:36.321Z,949.24
2018-10-12T10:27:44.494Z,949.25
2018-10-12T10:28:52.477Z,949.27
2018-10-12T10:30:00.537Z,949.27
2018-10-12T10:31:08.716Z,949.28
2018-10-12T10:32:16.695Z,949.31
2018-10-12T10:33:24.747Z,949.25
2018-10-12T10:34:32.816Z,949.24
2018-10-12T10:35:40.888Z,949.22
2018-10-12T10:36:49.052Z,949.19
2018-10-12T10:37:57.166Z,949.21
2018-10-12T10:39:05.165Z,949.24
2018-10-12T10:40:13.166Z,949.21
2018-10-12T10:41:21.230Z,949.21
2018-10-12T10:42:29.393Z,949.21
2018-10-12T10:43:37.472Z,949.19
2018-10-12T10:44:45.460Z,949.22
2018-10-12T10:45:53.514Z,949.23
2018-10-12T10:47:01.583Z,949.25
2018-10-12T10:48:09.743Z,949.24
2018-10-12T10:49:17.717Z,949.24
2018-10-12T10:50:25.775Z,949.23
2018-10-12T10:51:33.857Z,949.22
2018-10-12T10:52:42.030Z,949.21
2018-10-12T10:53:49.996Z,949.21
2018-10-12T10:54:58.082Z,949.19
2018-10-12T10:56:06.126Z,949.22
2018-10-12T10:57:14.200Z,949.25
2018-10-12T10:58:22.375Z,949.20
2018-10-12T10:59:30.452Z,949.23
2018-10-12T11:00:38.417Z,949.21
2018-10-12T11:01:46.463Z,949.23
2018-10-12T11:02:54.554Z,949.22
2018-10-12T11:04:02.744Z,949.26
2018-10-12T11:05:10.695Z,949.26
2018-10-12T11:06:18.809Z,949.24
2018-10-12T11:07:26.815Z,949.25
2018-10-12T11:08:34.913Z,949.25
2018-10-12T11:09:43.056Z,949.18
2018-10-12T11:10:51.235Z,949.20
2018-10-12T11:13:13.240Z,949.13
2018-10-12T11:14:21.353Z,949.16
2018-10-12T11:15:29.471Z,949.16
2018-10-12T11:16:37.450Z,949.11
2018-10-12T11:17:45.523Z,949.05
2018-10-12T11:18:53.590Z,949.07
2018-10-12T11:20:01.663Z,949.09
2018-10-12T11:21:09.820Z,949.05
2018-10-12T11:22:17.809Z,949.04
2018-10-12T11:23:25.883Z,949.06
2018-10-12T11:24:33.989Z,949.02
2018-10-12T11:25:41.991Z,949.05
2018-10-12T11:26:50.180Z,949.07
2018-10-12T11:27:58.156Z,949.07
2018-10-12T11:29:06.193Z,949.05
2018-10-12T11:30:14.297Z,949.05
2018-10-12T11:31:22.446Z,949.09
2018-10-12T11:32:30.506Z,949.06
2018-10-12T11:33:38.490Z,949.04
2018-10-12T11:34:46.545Z,949.06
2018-10-12T11:35:54.638Z,949.02
2018-10-12T11:37:02.706Z,949.00
2018-10-12T11:38:10.937Z,949.01
2018-10-12T11:39:18.838Z,949.01
2018-10-12T11:40:26.921Z,949.00
2018-10-12T11:41:35.188Z,948.96
2018-10-12T11:42:43.345Z,948.96
2018-10-12T11:43:51.328Z,948.91
2018-10-12T11:53:52.572Z,948.80
2018-10-12T11:55:00.542Z,948.79
2018-10-12T12:03:44.902Z,948.75
2018-10-12T12:04:52.971Z,948.72
2018-10-12T12:06:01.040Z,948.72
2018-10-12T12:07:09.158Z,948.72
2018-10-12T12:08:17.262Z,948.66
2018-10-12T12:09:25.237Z,948.70
2018-10-12T12:10:33.316Z,948.67
2018-10-12T12:11:41.363Z,948.67
2018-10-12T12:12:49.555Z,948.63
2018-10-12T12:13:57.665Z,948.58
2018-10-12T12:15:05.580Z,948.61
2018-10-12T12:16:13.656Z,948.59
2018-10-12T12:17:21.728Z,948.57
2018-10-12T12:18:29.798Z,948.58
2018-10-12T12:19:37.867Z,948.59
2018-10-12T12:20:45.952Z,948.60
2018-10-12T12:21:54.007Z,948.57
2018-10-12T12:23:02.771Z,948.61
2018-10-12T12:24:10.766Z,948.58
2018-10-12T12:25:18.826Z,948.59
2018-10-12T12:26:26.896Z,948.58
2018-10-12T12:27:35.058Z,948.60
2018-10-12T12:28:43.033Z,948.56
2018-10-12T12:29:52.308Z,948.55
2018-10-12T12:31:00.404Z,948.61
2018-10-12T12:32:08.446Z,948.59
2018-10-12T12:33:16.618Z,948.57
2018-10-12T12:34:24.598Z,948.62
2018-10-12T12:35:33.048Z,948.61
2018-10-12T12:36:40.722Z,948.59
2018-10-12T12:37:48.805Z,948.57
2018-10-12T12:38:56.954Z,948.57
2018-10-12T12:40:04.946Z,948.52
2018-10-12T12:41:13.037Z,948.52
2018-10-12T12:42:21.079Z,948.51
2018-10-12T12:43:29.144Z,948.50
2018-10-12T12:44:37.281Z,948.49
2018-10-12T12:45:45.429Z,948.51
2018-10-12T12:46:53.980Z,948.48
2018-10-12T12:48:02.596Z,948.46
2018-10-12T12:49:10.680Z,948.49
2018-10-12T12:50:18.482Z,948.53
2018-10-12T12:51:26.431Z,948.44
2018-10-12T12:52:34.525Z,948.44
2018-10-12T12:53:42.601Z,948.40
2018-10-12T12:54:50.765Z,948.43
2018-10-12T12:55:58.828Z,948.41
2018-10-12T12:57:06.807Z,948.41
2018-10-12T12:58:14.952Z,948.34
2018-10-12T12:59:22.934Z,948.36
2018-10-12T13:00:31.019Z,948.38
2018-10-12T13:01:39.177Z,948.39
2018-10-12T13:02:47.142Z,948.39
2018-10-12T13:03:55.310Z,948.35
2018-10-12T13:05:03.296Z,948.40
2018-10-12T13:06:11.355Z,948.38
2018-10-12T13:09:47.893Z,948.35
2018-10-12T13:10:55.962Z,948.33
2018-10-12T13:12:04.020Z,948.38
2018-10-12T13:13:12.199Z,948.38
2018-10-12T13:14:20.182Z,948.35
2018-10-12T13:15:28.229Z,948.32
2018-10-12T13:16:36.281Z,948.34
2018-10-12T13:17:44.477Z,948.33
2018-10-12T13:18:52.455Z,948.36
2018-10-12T13:20:00.525Z,948.32
2018-10-12T13:21:08.595Z,948.34
2018-10-12T13:22:16.669Z,948.36
2018-10-12T13:23:24.831Z,948.33
2018-10-12T13:24:32.821Z,948.33
2018-10-12T13:25:40.927Z,948.37
2018-10-12T13:26:48.948Z,948.39
2018-10-12T13:27:57.026Z,948.36
2018-10-12T13:29:05.178Z,948.38
2018-10-12T13:30:13.152Z,948.38
2018-10-12T13:31:21.223Z,948.38
2018-10-12T13:32:29.294Z,948.41
2018-10-12T13:33:37.378Z,948.43
2018-10-12T13:34:45.524Z,948.39
2018-10-12T13:35:53.505Z,948.41
2018-10-12T13:37:01.589Z,948.43
2018-10-12T13:38:09.655Z,948.43
2018-10-12T13:39:17.725Z,948.46
2018-10-12T13:40:25.868Z,948.46
2018-10-12T13:41:33.992Z,948.42
2018-10-12T13:42:41.942Z,948.44
2018-10-12T13:43:50.022Z,948.46
2018-10-12T13:44:58.074Z,948.48
2018-10-12T13:46:06.218Z,948.49
2018-10-12T13:47:14.207Z,948.49
2018-10-12T13:48:22.290Z,948.48
2018-10-12T13:49:30.364Z,948.48
2018-10-12T13:50:38.535Z,948.47
2018-10-12T13:51:46.559Z,948.43
2018-10-12T13:52:54.561Z,948.44
2018-10-12T13:54:02.619Z,948.46
2018-10-12T13:55:10.708Z,948.50
2018-10-12T13:56:18.767Z,948.44
2018-10-12T13:57:26.933Z,948.47
2018-10-12T13:58:34.924Z,948.49
2018-10-12T13:59:42.981Z,948.48
2018-10-12T14:00:51.052Z,948.49
2018-10-12T14:01:59.120Z,948.50
2018-10-12T14:03:07.299Z,948.51
2018-10-12T14:04:15.270Z,948.50
2018-10-12T14:05:23.329Z,948.53
2018-10-12T14:06:31.516Z,948.54
2018-10-12T14:07:39.592Z,948.56
2018-10-12T14:08:47.567Z,948.54
2018-10-12T14:09:55.621Z,948.55
2018-10-12T14:11:03.690Z,948.54
2018-10-12T14:12:11.793Z,948.57
2018-10-12T14:13:19.928Z,948.52
2018-10-12T14:14:27.915Z,948.49
2018-10-12T14:15:35.965Z,948.50
2018-10-12T14:16:44.048Z,948.50
2018-10-12T14:17:52.156Z,948.47
2018-10-12T14:19:00.479Z,948.50
2018-10-12T14:20:08.353Z,948.47
2018-10-12T14:21:16.328Z,948.50
2018-10-12T14:22:24.496Z,948.50
2018-10-12T14:23:32.476Z,948.48
2018-10-12T14:24:40.641Z,948.49
2018-10-12T14:25:48.619Z,948.48
2018-10-12T14:26:56.660Z,948.49
2018-10-12T14:28:04.751Z,948.49
2018-10-12T14:29:12.823Z,948.49
2018-10-12T14:30:20.982Z,948.48
2018-10-12T14:31:28.971Z,948.49
2018-10-12T14:32:37.031Z,948.52
2018-10-12T14:33:45.104Z,948.51
2018-10-12T14:34:53.171Z,948.49